TimeCST,TemperatureF,Dew PointF,Humidity,Sea Level PressureIn,VisibilityMPH,Wind Direction,Wind SpeedMPH,Gust SpeedMPH,PrecipitationIn,Events,Conditions,WindDirDegrees,DateUTC
6:00 AM,74,72,93,29.81,12,Calm,Calm,,,,Mist,,2013-10-23 12:00:00
6:00 AM,73.4,71.6,94,29.80,6.2,Calm,Calm,-,N/A,,Mostly Cloudy,0,2013-10-23 12:00:00
6:17 AM,75.2,73.4,94,29.81,1.6,West,3.5,-,N/A,,Scattered Clouds,270,2013-10-23 12:17:00
7:00 AM,75.2,71.6,89,29.84,4.3,SW,3.5,-,N/A,,Scattered Clouds,220,2013-10-23 13:00:00
8:00 AM,77.0,73.4,89,29.85,6.2,SE,4.6,-,N/A,,Mostly Cloudy,130,2013-10-23 14:00:00
9:00 AM,81,73,71,29.88,12,East,3.5,,,,Overcast,80,2013-10-23 15:00:00
9:00 AM,80.6,73.4,79,29.87,6.2,East,3.5,-,N/A,,Mostly Cloudy,80,2013-10-23 15:00:00
10:00 AM,82.4,71.6,70,29.86,6.2,East,6.9,-,N/A,,Mostly Cloudy,100,2013-10-23 16:00:00
11:00 AM,86.0,71.6,62,29.83,6.2,ESE,6.9,-,N/A,,Mostly Cloudy,110,2013-10-23 17:00:00
12:00 PM,86,73,56,29.81,12,ESE,5.8,,,,Overcast,120,2013-10-23 18:00:00
12:00 PM,86.0,73.4,66,29.81,6.2,ESE,5.8,-,N/A,,Mostly Cloudy,120,2013-10-23 18:00:00
1:00 PM,87.8,71.6,58,29.77,6.2,East,3.5,-,N/A,,Scattered Clouds,100,2013-10-23 19:00:00
2:00 PM,87.8,75.2,66,29.74,6.2,WSW,9.2,-,N/A,,Scattered Clouds,250,2013-10-23 20:00:00
3:00 PM,84.2,73.4,70,29.73,6.2,West,11.5,-,N/A,,Scattered Clouds,260,2013-10-23 21:00:00
4:00 PM,78.8,73.4,83,29.75,6.2,North,5.8,-,N/A,,Mostly Cloudy,360,2013-10-23 22:00:00
4:20 PM,78.8,73.4,83,29.77,6.2,NNE,3.5,-,N/A,Thunderstorm,Thunderstorm,20,2013-10-23 22:20:00
5:00 PM,78.8,73.4,83,29.78,6.2,East,3.5,-,N/A,Rain,Rain,80,2013-10-23 23:00:00
6:00 PM,77,74,86,29.81,9,South,2.3,,,,Overcast,180,2013-10-24 00:00:00
6:00 PM,77.0,73.4,89,29.79,6.2,South,2.3,-,N/A,Rain,Light Rain,180,2013-10-24 00:00:00
7:00 PM,77.0,73.4,89,29.81,6.2,SSE,2.3,-,N/A,,Overcast,150,2013-10-24 01:00:00
8:00 PM,75.2,71.6,89,29.84,6.2,East,2.3,-,N/A,,Overcast,100,2013-10-24 02:00:00